createdAt,value
2023-03-04T00:00:56.054Z,1020.42
2023-03-04T00:01:56.046Z,1020.46
2023-03-04T00:02:56.053Z,1020.43
2023-03-04T00:03:56.032Z,1020.39
2023-03-04T00:04:56.024Z,1020.41
2023-03-04T00:05:56.016Z,1020.42
2023-03-04T00:06:56.012Z,1020.45
2023-03-04T00:07:56.007Z,1020.40
2023-03-04T00:08:55.998Z,1020.41
2023-03-04T00:09:55.989Z,1020.38
2023-03-04T00:10:55.983Z,1020.40
2023-03-04T00:11:55.979Z,1020.43
2023-03-04T00:12:56.004Z,1020.44
2023-03-04T00:13:55.965Z,1020.44
2023-03-04T00:14:55.967Z,1020.44
2023-03-04T00:15:55.949Z,1020.41
2023-03-04T00:16:55.940Z,1020.42
2023-03-04T00:17:55.936Z,1020.40
2023-03-04T00:18:55.926Z,1020.45
2023-03-04T00:19:55.918Z,1020.39
2023-03-04T00:20:55.918Z,1020.41
2023-03-04T00:21:55.904Z,1020.41
2023-03-04T00:22:55.899Z,1020.41
2023-03-04T00:23:55.891Z,1020.42
2023-03-04T00:24:55.886Z,1020.41
2023-03-04T00:25:55.874Z,1020.39
2023-03-04T00:26:55.873Z,1020.39
2023-03-04T00:27:55.861Z,1020.38
2023-03-04T00:28:55.877Z,1020.41
2023-03-04T00:29:55.846Z,1020.36
2023-03-04T00:30:55.856Z,1020.36
2023-03-04T00:31:55.927Z,1020.38
2023-03-04T00:32:55.826Z,1020.34
2023-03-04T00:33:55.826Z,1020.39
2023-03-04T00:34:55.813Z,1020.32
2023-03-04T00:35:55.817Z,1020.31
2023-03-04T00:36:55.801Z,1020.25
2023-03-04T00:37:55.790Z,1020.27
2023-03-04T00:38:55.784Z,1020.25
2023-03-04T00:39:55.788Z,1020.27
2023-03-04T00:40:55.773Z,1020.28
2023-03-04T00:41:55.762Z,1020.24
2023-03-04T00:42:55.758Z,1020.23
2023-03-04T00:43:55.753Z,1020.23
2023-03-04T00:44:55.764Z,1020.24
2023-03-04T00:45:55.884Z,1020.23
2023-03-04T00:46:55.737Z,1020.19
2023-03-04T00:47:55.724Z,1020.19
2023-03-04T00:48:55.716Z,1020.20
2023-03-04T00:49:55.705Z,1020.20
2023-03-04T00:50:55.705Z,1020.18
2023-03-04T00:51:55.691Z,1020.19
2023-03-04T00:52:55.703Z,1020.20
2023-03-04T00:53:55.676Z,1020.23
2023-03-04T00:54:55.675Z,1020.23
2023-03-04T00:55:55.666Z,1020.21
2023-03-04T00:56:55.657Z,1020.21
2023-03-04T00:57:55.650Z,1020.24
2023-03-04T00:58:55.645Z,1020.22
2023-03-04T00:59:55.642Z,1020.23
2023-03-04T01:00:55.691Z,1020.20
2023-03-04T01:01:55.627Z,1020.19
2023-03-04T01:02:55.621Z,1020.16
2023-03-04T01:03:55.615Z,1020.16
2023-03-04T01:04:55.601Z,1020.16
2023-03-04T01:05:55.597Z,1020.15
2023-03-04T01:06:55.586Z,1020.17
2023-03-04T01:07:55.594Z,1020.17
2023-03-04T01:08:55.613Z,1020.18
2023-03-04T01:09:55.574Z,1020.17
2023-03-04T01:10:55.567Z,1020.13
2023-03-04T01:11:55.548Z,1020.15
2023-03-04T01:12:55.548Z,1020.09
2023-03-04T01:13:55.541Z,1020.11
2023-03-04T01:14:55.538Z,1020.11
2023-03-04T01:15:55.522Z,1020.12
2023-03-04T01:16:55.624Z,1020.10
2023-03-04T01:17:55.578Z,1020.07
2023-03-04T01:18:55.505Z,1020.08
2023-03-04T01:19:55.493Z,1020.06
2023-03-04T01:20:55.488Z,1020.07
2023-03-04T01:21:55.479Z,1020.08
2023-03-04T01:22:55.477Z,1020.03
2023-03-04T01:23:55.464Z,1020.03
2023-03-04T01:24:55.461Z,1020.04
2023-03-04T01:25:55.448Z,1020.04
2023-03-04T01:26:55.447Z,1020.08
2023-03-04T01:27:55.440Z,1020.07
2023-03-04T01:28:55.438Z,1020.03
2023-03-04T01:29:55.773Z,1020.06
2023-03-04T01:30:55.549Z,1020.00
2023-03-04T01:31:55.442Z,1019.98
2023-03-04T01:32:55.421Z,1019.99
2023-03-04T01:33:55.393Z,1020.00
2023-03-04T01:34:55.392Z,1020.00
2023-03-04T01:35:55.423Z,1019.98
2023-03-04T01:36:55.383Z,1019.96
2023-03-04T01:37:55.369Z,1019.96
2023-03-04T01:38:55.361Z,1019.98
2023-03-04T01:39:55.353Z,1019.92
2023-03-04T01:40:55.350Z,1019.93
2023-03-04T01:41:55.344Z,1019.92
2023-03-04T01:42:55.333Z,1019.94
2023-03-04T01:43:55.325Z,1019.95
2023-03-04T01:44:55.319Z,1019.89
2023-03-04T01:45:55.367Z,1019.94
2023-03-04T01:46:55.310Z,1019.92
2023-03-04T01:47:55.303Z,1019.89
2023-03-04T01:48:55.381Z,1019.88
2023-03-04T01:49:55.288Z,1019.89
2023-03-04T01:50:55.282Z,1019.89
2023-03-04T01:51:55.279Z,1019.85
2023-03-04T01:52:55.267Z,1019.84
2023-03-04T01:53:55.269Z,1019.87
2023-03-04T01:54:55.255Z,1019.84
2023-03-04T01:55:55.246Z,1019.88
2023-03-04T01:56:55.237Z,1019.83
2023-03-04T01:57:55.229Z,1019.82
2023-03-04T01:58:55.224Z,1019.81
2023-03-04T01:59:55.220Z,1019.82
2023-03-04T02:00:55.210Z,1019.82
2023-03-04T02:01:55.279Z,1019.78
2023-03-04T02:02:55.199Z,1019.75
2023-03-04T02:03:55.234Z,1019.76
2023-03-04T02:04:55.210Z,1019.75
2023-03-04T02:05:55.172Z,1019.71
2023-03-04T02:06:55.181Z,1019.74
2023-03-04T02:07:55.164Z,1019.74
2023-03-04T02:08:55.153Z,1019.73
2023-03-04T02:09:55.146Z,1019.69
2023-03-04T02:10:55.152Z,1019.69
2023-03-04T02:11:55.130Z,1019.70
2023-03-04T02:12:55.127Z,1019.70
2023-03-04T02:13:55.124Z,1019.68
2023-03-04T02:14:55.112Z,1019.69
2023-03-04T02:15:55.178Z,1019.70
2023-03-04T02:16:55.122Z,1019.69
2023-03-04T02:17:55.094Z,1019.68
2023-03-04T02:18:55.096Z,1019.66
2023-03-04T02:19:55.081Z,1019.68
2023-03-04T02:20:55.092Z,1019.67
2023-03-04T02:21:55.076Z,1019.68
2023-03-04T02:22:55.060Z,1019.65
2023-03-04T02:23:55.054Z,1019.64
2023-03-04T02:24:55.054Z,1019.65
2023-03-04T02:25:55.065Z,1019.62
2023-03-04T02:26:55.033Z,1019.65
2023-03-04T02:27:55.026Z,1019.61
2023-03-04T02:28:55.019Z,1019.59
2023-03-04T02:29:55.010Z,1019.59
2023-03-04T02:30:55.045Z,1019.65
2023-03-04T02:31:55.042Z,1019.60
2023-03-04T02:32:54.985Z,1019.61
2023-03-04T02:33:54.995Z,1019.58
2023-03-04T02:34:54.973Z,1019.63
2023-03-04T02:35:55.038Z,1019.64
2023-03-04T02:36:54.980Z,1019.60
2023-03-04T02:37:54.953Z,1019.58
2023-03-04T02:38:54.950Z,1019.58
2023-03-04T02:39:54.939Z,1019.57
2023-03-04T02:40:54.930Z,1019.56
2023-03-04T02:41:54.937Z,1019.57
2023-03-04T02:42:54.918Z,1019.52
2023-03-04T02:43:54.916Z,1019.51
2023-03-04T02:44:54.903Z,1019.55
2023-03-04T02:45:54.899Z,1019.53
2023-03-04T02:46:54.992Z,1019.50
2023-03-04T02:47:54.888Z,1019.47
2023-03-04T02:48:54.876Z,1019.50
2023-03-04T02:49:54.880Z,1019.48
2023-03-04T02:50:54.873Z,1019.47
2023-03-04T02:51:54.863Z,1019.45
2023-03-04T02:52:54.870Z,1019.41
2023-03-04T02:53:54.845Z,1019.40
2023-03-04T02:54:54.834Z,1019.40
2023-03-04T02:55:54.836Z,1019.41
2023-03-04T02:56:54.834Z,1019.39
2023-03-04T02:57:54.819Z,1019.40
2023-03-04T02:58:54.815Z,1019.39
2023-03-04T02:59:54.817Z,1019.40
2023-03-04T03:00:54.802Z,1019.39
2023-03-04T03:01:54.869Z,1019.36
2023-03-04T03:02:54.801Z,1019.35
2023-03-04T03:03:54.783Z,1019.32
2023-03-04T03:04:54.768Z,1019.33
2023-03-04T03:05:54.760Z,1019.33
2023-03-04T03:06:54.758Z,1019.32
2023-03-04T03:07:54.752Z,1019.35
2023-03-04T03:08:54.758Z,1019.36
2023-03-04T03:09:54.737Z,1019.35
2023-03-04T03:10:54.726Z,1019.36
2023-03-04T03:11:54.721Z,1019.35
2023-03-04T03:12:54.713Z,1019.33
2023-03-04T03:13:54.707Z,1019.31
2023-03-04T03:14:54.708Z,1019.31
2023-03-04T03:15:54.735Z,1019.32
2023-03-04T03:16:54.684Z,1019.28
2023-03-04T03:17:54.679Z,1019.32
2023-03-04T03:18:54.672Z,1019.30
2023-03-04T03:19:54.666Z,1019.29
2023-03-04T03:20:54.666Z,1019.24
2023-03-04T03:21:54.649Z,1019.25
2023-03-04T03:22:54.643Z,1019.23
2023-03-04T03:23:54.639Z,1019.25
2023-03-04T03:24:54.651Z,1019.25
2023-03-04T03:25:54.623Z,1019.26
2023-03-04T03:26:54.615Z,1019.23
2023-03-04T03:27:54.613Z,1019.20
2023-03-04T03:28:54.600Z,1019.22
2023-03-04T03:29:54.596Z,1019.22
2023-03-04T03:30:54.582Z,1019.21
2023-03-04T03:31:54.638Z,1019.21
2023-03-04T03:32:54.568Z,1019.18
2023-03-04T03:33:54.568Z,1019.22
2023-03-04T03:34:54.557Z,1019.21
2023-03-04T03:35:54.639Z,1019.25
2023-03-04T03:36:54.542Z,1019.22
2023-03-04T03:37:54.540Z,1019.21
2023-03-04T03:38:54.537Z,1019.19
2023-03-04T03:39:54.531Z,1019.22
2023-03-04T03:40:54.547Z,1019.22
2023-03-04T03:41:54.514Z,1019.22
2023-03-04T03:42:54.501Z,1019.21
2023-03-04T03:43:54.494Z,1019.22
2023-03-04T03:44:54.508Z,1019.19
2023-03-04T03:45:54.534Z,1019.21
2023-03-04T03:46:54.477Z,1019.18
2023-03-04T03:47:54.478Z,1019.20
2023-03-04T03:48:54.456Z,1019.16
2023-03-04T03:49:54.461Z,1019.17
2023-03-04T03:50:54.449Z,1019.18
2023-03-04T03:51:54.446Z,1019.17
2023-03-04T03:52:54.434Z,1019.17
2023-03-04T03:53:54.424Z,1019.18
2023-03-04T03:54:54.425Z,1019.15
2023-03-04T03:55:54.421Z,1019.17
2023-03-04T03:56:54.431Z,1019.16
2023-03-04T03:57:54.408Z,1019.18
2023-03-04T03:58:54.391Z,1019.18
2023-03-04T03:59:54.388Z,1019.16
2023-03-04T04:00:56.483Z,1019.15
2023-03-04T04:01:54.510Z,1019.16
2023-03-04T04:02:54.453Z,1019.16
2023-03-04T04:03:54.359Z,1019.14
2023-03-04T04:04:54.353Z,1019.18
2023-03-04T04:05:54.355Z,1019.15
2023-03-04T04:06:54.336Z,1019.19
2023-03-04T04:07:54.363Z,1019.17
2023-03-04T04:08:54.327Z,1019.15
2023-03-04T04:09:54.320Z,1019.15
2023-03-04T04:10:54.316Z,1019.13
2023-03-04T04:11:54.306Z,1019.19
2023-03-04T04:12:54.317Z,1019.19
2023-03-04T04:13:54.291Z,1019.15
2023-03-04T04:14:54.293Z,1019.17
2023-03-04T04:15:54.317Z,1019.15
2023-03-04T04:16:54.289Z,1019.15
2023-03-04T04:17:54.268Z,1019.15
2023-03-04T04:18:54.257Z,1019.14
2023-03-04T04:19:54.247Z,1019.12
2023-03-04T04:20:54.240Z,1019.11
2023-03-04T04:21:54.234Z,1019.09
2023-03-04T04:22:54.233Z,1019.14
2023-03-04T04:23:54.220Z,1019.13
2023-03-04T04:24:54.210Z,1019.08
2023-03-04T04:25:54.205Z,1019.11
2023-03-04T04:26:54.194Z,1019.06
2023-03-04T04:27:54.204Z,1019.08
2023-03-04T04:28:54.205Z,1019.11
2023-03-04T04:29:54.175Z,1019.11
2023-03-04T04:30:54.189Z,1019.07
2023-03-04T04:31:54.194Z,1019.10
2023-03-04T04:32:54.159Z,1019.08
2023-03-04T04:33:54.149Z,1019.05
2023-03-04T04:34:54.140Z,1019.09
2023-03-04T04:35:54.200Z,1019.07
2023-03-04T04:36:54.126Z,1019.07
2023-03-04T04:37:54.120Z,1019.02
2023-03-04T04:38:54.112Z,1019.06
2023-03-04T04:39:54.121Z,1019.08
2023-03-04T04:40:54.095Z,1019.10
2023-03-04T04:41:54.090Z,1019.09
2023-03-04T04:42:54.099Z,1019.10
2023-03-04T04:43:54.083Z,1019.09
2023-03-04T04:44:54.084Z,1019.10
2023-03-04T04:45:54.133Z,1019.12
2023-03-04T04:46:54.054Z,1019.08
2023-03-04T04:47:54.048Z,1019.09
2023-03-04T04:48:54.044Z,1019.11
2023-03-04T04:49:54.034Z,1019.12
2023-03-04T04:50:54.026Z,1019.11
2023-03-04T04:51:54.026Z,1019.12
2023-03-04T04:52:54.017Z,1019.12
2023-03-04T04:53:54.016Z,1019.16
2023-03-04T04:54:54.003Z,1019.12
2023-03-04T04:55:53.991Z,1019.11
2023-03-04T04:56:53.984Z,1019.11
2023-03-04T04:57:53.980Z,1019.14
2023-03-04T04:58:53.970Z,1019.14
2023-03-04T04:59:53.964Z,1019.16
2023-03-04T05:00:53.976Z,1019.13
2023-03-04T05:01:53.954Z,1019.13
2023-03-04T05:02:53.965Z,1019.17
2023-03-04T05:03:53.943Z,1019.11
2023-03-04T05:04:53.935Z,1019.14
2023-03-04T05:05:53.929Z,1019.12
2023-03-04T05:06:53.922Z,1019.12
2023-03-04T05:07:53.914Z,1019.16
2023-03-04T05:08:53.911Z,1019.15
2023-03-04T05:09:53.902Z,1019.11
2023-03-04T05:10:53.896Z,1019.14
2023-03-04T05:11:53.891Z,1019.10
2023-03-04T05:12:53.885Z,1019.09
2023-03-04T05:13:53.879Z,1019.11
2023-03-04T05:14:53.869Z,1019.11
2023-03-04T05:15:54.109Z,1019.10
2023-03-04T05:16:53.913Z,1019.09
2023-03-04T05:17:53.849Z,1019.08
2023-03-04T05:18:53.844Z,1019.11
2023-03-04T05:19:53.842Z,1019.11
2023-03-04T05:20:53.828Z,1019.09
2023-03-04T05:21:53.823Z,1019.09
2023-03-04T05:22:53.821Z,1019.08
2023-03-04T05:23:53.806Z,1019.17
2023-03-04T05:24:53.797Z,1019.13
2023-03-04T05:25:53.824Z,1019.18
2023-03-04T05:26:53.802Z,1019.16
2023-03-04T05:27:53.793Z,1019.16
2023-03-04T05:28:53.780Z,1019.14
2023-03-04T05:29:53.765Z,1019.12
2023-03-04T05:30:53.766Z,1019.08
2023-03-04T05:31:53.769Z,1019.12
2023-03-04T05:32:53.798Z,1019.14
2023-03-04T05:33:53.742Z,1019.14
2023-03-04T05:34:53.930Z,1019.16
2023-03-04T05:35:53.788Z,1019.12
2023-03-04T05:36:53.722Z,1019.12
2023-03-04T05:37:53.716Z,1019.10
2023-03-04T05:38:53.701Z,1019.13
2023-03-04T05:39:53.696Z,1019.10
2023-03-04T05:40:53.698Z,1019.11
2023-03-04T05:41:53.697Z,1019.11
2023-03-04T05:42:53.684Z,1019.12
2023-03-04T05:43:53.674Z,1019.18
2023-03-04T05:44:53.676Z,1019.15
2023-03-04T05:45:53.659Z,1019.14
2023-03-04T05:46:53.745Z,1019.16
2023-03-04T05:47:53.651Z,1019.17
2023-03-04T05:48:53.667Z,1019.13
2023-03-04T05:49:53.633Z,1019.15
2023-03-04T05:50:53.624Z,1019.15
2023-03-04T05:51:53.619Z,1019.17
2023-03-04T05:52:53.633Z,1019.17
2023-03-04T05:53:53.609Z,1019.15
2023-03-04T05:54:53.593Z,1019.15
2023-03-04T05:55:53.613Z,1019.16
2023-03-04T05:56:53.582Z,1019.17
2023-03-04T05:57:53.583Z,1019.18
2023-03-04T05:58:53.566Z,1019.21
2023-03-04T05:59:53.562Z,1019.22
2023-03-04T06:00:53.558Z,1019.18
2023-03-04T06:01:53.548Z,1019.20
2023-03-04T06:02:53.590Z,1019.19
2023-03-04T06:03:53.598Z,1019.19
2023-03-04T06:04:53.552Z,1019.23
2023-03-04T06:05:53.518Z,1019.23
2023-03-04T06:06:53.513Z,1019.23
2023-03-04T06:07:53.506Z,1019.23
2023-03-04T06:08:53.506Z,1019.17
2023-03-04T06:09:53.512Z,1019.18
2023-03-04T06:10:53.493Z,1019.19
2023-03-04T06:11:53.495Z,1019.21
2023-03-04T06:12:53.479Z,1019.20
2023-03-04T06:13:53.480Z,1019.23
2023-03-04T06:14:53.457Z,1019.23
2023-03-04T06:15:53.487Z,1019.28
2023-03-04T06:16:53.443Z,1019.23
2023-03-04T06:17:53.438Z,1019.27
2023-03-04T06:18:53.438Z,1019.28
2023-03-04T06:19:53.429Z,1019.29
2023-03-04T06:20:53.433Z,1019.29
2023-03-04T06:21:53.416Z,1019.34
2023-03-04T06:22:53.405Z,1019.35
2023-03-04T06:23:53.401Z,1019.33
2023-03-04T06:24:53.387Z,1019.36
2023-03-04T06:25:53.390Z,1019.39
2023-03-04T06:26:53.375Z,1019.41
2023-03-04T06:27:55.132Z,1019.44
2023-03-04T06:28:53.378Z,1019.37
2023-03-04T06:29:53.359Z,1019.39
2023-03-04T06:30:53.352Z,1019.41
2023-03-04T06:31:53.408Z,1019.42
2023-03-04T06:32:53.351Z,1019.44
2023-03-04T06:33:53.334Z,1019.43
2023-03-04T06:34:53.519Z,1019.41
2023-03-04T06:35:53.353Z,1019.43
2023-03-04T06:36:53.320Z,1019.47
2023-03-04T06:37:53.308Z,1019.47
2023-03-04T06:38:53.294Z,1019.47
2023-03-04T06:39:53.297Z,1019.49
2023-03-04T06:40:55.406Z,1019.49
2023-03-04T06:41:53.281Z,1019.47
2023-03-04T06:42:53.271Z,1019.49
2023-03-04T06:43:53.274Z,1019.46
2023-03-04T06:44:53.250Z,1019.51
2023-03-04T06:45:53.241Z,1019.49
2023-03-04T06:46:53.296Z,1019.50
2023-03-04T06:47:53.229Z,1019.47
2023-03-04T06:48:53.234Z,1019.52
2023-03-04T06:49:53.228Z,1019.55
2023-03-04T06:50:53.218Z,1019.58
2023-03-04T06:51:53.198Z,1019.59
2023-03-04T06:52:53.214Z,1019.58
2023-03-04T06:53:53.191Z,1019.59
2023-03-04T06:54:53.181Z,1019.60
2023-03-04T06:55:53.175Z,1019.59
2023-03-04T06:56:53.176Z,1019.59
2023-03-04T06:57:53.168Z,1019.59
2023-03-04T06:58:53.157Z,1019.60
2023-03-04T06:59:53.152Z,1019.61
2023-03-04T07:00:53.209Z,1019.61
2023-03-04T07:01:53.163Z,1019.59
2023-03-04T07:02:55.115Z,1019.61
2023-03-04T07:03:53.227Z,1019.59
2023-03-04T07:04:53.120Z,1019.60
2023-03-04T07:05:53.106Z,1019.61
2023-03-04T07:06:53.124Z,1019.56
2023-03-04T07:07:53.099Z,1019.57
2023-03-04T07:08:53.130Z,1019.65
2023-03-04T07:09:53.086Z,1019.59
2023-03-04T07:10:53.073Z,1019.62
2023-03-04T07:11:53.077Z,1019.60
2023-03-04T07:12:53.059Z,1019.63
2023-03-04T07:13:53.057Z,1019.64
2023-03-04T07:14:53.097Z,1019.66
2023-03-04T07:15:53.037Z,1019.62
2023-03-04T07:16:53.036Z,1019.60
2023-03-04T07:17:53.024Z,1019.64
2023-03-04T07:18:53.019Z,1019.64
2023-03-04T07:19:53.032Z,1019.63
2023-03-04T07:20:53.010Z,1019.66
2023-03-04T07:21:53.015Z,1019.65
2023-03-04T07:22:52.998Z,1019.66
2023-03-04T07:23:52.998Z,1019.70
2023-03-04T07:24:53.011Z,1019.65
2023-03-04T07:25:52.979Z,1019.69
2023-03-04T07:26:52.964Z,1019.68
2023-03-04T07:27:52.957Z,1019.71
2023-03-04T07:28:52.965Z,1019.69
2023-03-04T07:29:52.956Z,1019.70
2023-03-04T07:30:52.947Z,1019.69
2023-03-04T07:31:53.769Z,1019.72
2023-03-04T07:32:52.928Z,1019.71
2023-03-04T07:33:52.939Z,1019.72
2023-03-04T07:34:52.911Z,1019.73
2023-03-04T07:35:53.021Z,1019.74
2023-03-04T07:36:52.895Z,1019.71
2023-03-04T07:37:52.888Z,1019.75
2023-03-04T07:38:52.894Z,1019.78
2023-03-04T07:39:53.028Z,1019.74
2023-03-04T07:40:52.894Z,1019.75
2023-03-04T07:41:52.860Z,1019.74
2023-03-04T07:42:52.861Z,1019.76
2023-03-04T07:43:52.857Z,1019.75
2023-03-04T07:44:52.841Z,1019.76
2023-03-04T07:45:52.910Z,1019.79
2023-03-04T07:46:52.842Z,1019.78
2023-03-04T07:47:52.833Z,1019.79
2023-03-04T07:48:52.860Z,1019.80
2023-03-04T07:49:52.826Z,1019.81
2023-03-04T07:50:52.802Z,1019.81
2023-03-04T07:51:52.792Z,1019.81
2023-03-04T07:52:52.798Z,1019.80
2023-03-04T07:53:52.781Z,1019.85
2023-03-04T07:54:52.776Z,1019.85
2023-03-04T07:55:52.765Z,1019.82
2023-03-04T07:56:52.780Z,1019.84
2023-03-04T07:57:52.760Z,1019.81
2023-03-04T07:58:52.749Z,1019.83
2023-03-04T07:59:52.744Z,1019.87
2023-03-04T08:00:52.732Z,1019.85
2023-03-04T08:01:52.729Z,1019.86
2023-03-04T08:02:52.720Z,1019.87
2023-03-04T08:03:52.772Z,1019.86
2023-03-04T08:04:52.720Z,1019.83
2023-03-04T08:05:52.698Z,1019.87
2023-03-04T08:06:52.696Z,1019.86
2023-03-04T08:07:52.686Z,1019.87
2023-03-04T08:08:52.686Z,1019.89
2023-03-04T08:09:52.673Z,1019.90
2023-03-04T08:10:52.666Z,1019.89
2023-03-04T08:11:52.663Z,1019.88
2023-03-04T08:12:52.672Z,1019.93
2023-03-04T08:13:52.644Z,1019.90
2023-03-04T08:14:52.636Z,1019.94
2023-03-04T08:15:52.716Z,1019.90
2023-03-04T08:16:52.624Z,1019.86
2023-03-04T08:17:52.646Z,1019.86
2023-03-04T08:18:52.619Z,1019.83
2023-03-04T08:19:52.607Z,1019.87
2023-03-04T08:20:52.611Z,1019.91
2023-03-04T08:21:52.630Z,1019.87
2023-03-04T08:22:52.596Z,1019.91
2023-03-04T08:23:52.647Z,1019.92
2023-03-04T08:24:52.592Z,1019.87
2023-03-04T08:25:52.574Z,1019.88
2023-03-04T08:26:52.561Z,1019.84
2023-03-04T08:27:52.555Z,1019.81
2023-03-04T08:28:52.593Z,1019.81
2023-03-04T08:29:52.540Z,1019.81
2023-03-04T08:30:52.626Z,1019.83
2023-03-04T08:31:52.692Z,1019.80
2023-03-04T08:32:52.629Z,1019.80
2023-03-04T08:33:52.514Z,1019.87
2023-03-04T08:34:52.503Z,1019.86
2023-03-04T08:35:52.522Z,1019.87
2023-03-04T08:36:52.495Z,1019.90
2023-03-04T08:37:52.479Z,1019.90
2023-03-04T08:38:52.476Z,1019.92
2023-03-04T08:39:52.815Z,1019.91
2023-03-04T08:40:52.476Z,1019.90
2023-03-04T08:41:52.457Z,1019.90
2023-03-04T08:42:52.452Z,1019.92
2023-03-04T08:43:52.442Z,1019.94
2023-03-04T08:44:52.458Z,1019.91
2023-03-04T08:45:52.482Z,1019.92
2023-03-04T08:46:52.429Z,1019.92
2023-03-04T08:47:52.435Z,1019.98
2023-03-04T08:48:52.409Z,1019.97
2023-03-04T08:49:52.432Z,1019.94
2023-03-04T08:50:52.399Z,1019.97
2023-03-04T08:51:52.388Z,1019.92
2023-03-04T08:52:52.383Z,1019.96
2023-03-04T08:53:52.368Z,1019.90
2023-03-04T08:54:52.373Z,1019.94
2023-03-04T08:55:52.358Z,1019.88
2023-03-04T08:56:52.369Z,1019.94
2023-03-04T08:57:52.342Z,1019.92
2023-03-04T08:58:52.337Z,1019.87
2023-03-04T08:59:52.329Z,1019.88
2023-03-04T09:00:52.348Z,1019.86
2023-03-04T09:01:52.373Z,1019.87
2023-03-04T09:02:52.311Z,1019.88
2023-03-04T09:03:52.411Z,1019.87
2023-03-04T09:04:52.306Z,1019.88
2023-03-04T09:05:52.288Z,1019.89
2023-03-04T09:06:53.958Z,1019.85
2023-03-04T09:07:52.281Z,1019.89
2023-03-04T09:08:52.272Z,1019.89
2023-03-04T09:09:52.302Z,1019.90
2023-03-04T09:10:52.255Z,1019.86
2023-03-04T09:11:52.248Z,1019.86
2023-03-04T09:12:52.244Z,1019.86
2023-03-04T09:13:52.296Z,1019.91
2023-03-04T09:15:08.336Z,1019.89
2023-03-04T09:15:52.262Z,1019.89
2023-03-04T09:16:52.235Z,1019.92
2023-03-04T09:17:52.211Z,1019.95
2023-03-04T09:18:52.204Z,1019.94
2023-03-04T09:19:52.196Z,1019.94
2023-03-04T09:20:52.195Z,1019.98
2023-03-04T09:21:52.180Z,1019.96
2023-03-04T09:22:52.179Z,1019.96
2023-03-04T09:23:52.167Z,1019.97
2023-03-04T09:24:52.162Z,1019.97
2023-03-04T09:25:52.151Z,1019.96
2023-03-04T09:26:52.152Z,1019.96
2023-03-04T09:27:52.138Z,1019.96
2023-03-04T09:28:52.139Z,1019.98
2023-03-04T09:29:52.124Z,1019.96
2023-03-04T09:30:52.119Z,1019.99
2023-03-04T09:31:52.112Z,1019.98
2023-03-04T09:32:52.128Z,1019.93
2023-03-04T09:33:52.113Z,1019.96
2023-03-04T09:34:52.095Z,1019.99
2023-03-04T09:35:52.156Z,1019.96
2023-03-04T09:36:52.079Z,1019.98
2023-03-04T09:37:52.074Z,1020.00
2023-03-04T09:38:52.067Z,1020.00
2023-03-04T09:39:52.057Z,1020.00
2023-03-04T09:40:52.058Z,1019.99
2023-03-04T09:41:52.042Z,1019.98
2023-03-04T09:42:52.039Z,1020.00
2023-03-04T09:43:52.050Z,1019.99
2023-03-04T09:44:52.030Z,1019.98
2023-03-04T09:45:52.023Z,1019.97
2023-03-04T09:46:52.036Z,1019.99
2023-03-04T09:47:52.008Z,1019.95
2023-03-04T09:48:52.019Z,1019.98
2023-03-04T09:49:52.018Z,1020.00
2023-03-04T09:50:51.985Z,1019.96
2023-03-04T09:51:51.973Z,1019.95
2023-03-04T09:52:51.973Z,1019.95
2023-03-04T09:53:51.962Z,1019.94
2023-03-04T09:54:51.955Z,1019.93
2023-03-04T09:55:51.952Z,1019.96
2023-03-04T09:56:51.944Z,1019.93
2023-03-04T09:57:51.936Z,1019.91
2023-03-04T09:58:51.929Z,1019.91
2023-03-04T09:59:51.927Z,1019.92
2023-03-04T10:00:52.003Z,1019.87
2023-03-04T10:01:51.930Z,1019.91
2023-03-04T10:02:51.903Z,1019.91
2023-03-04T10:03:51.978Z,1019.88
2023-03-04T10:04:52.000Z,1019.88
2023-03-04T10:05:51.878Z,1019.88
2023-03-04T10:06:51.878Z,1019.84
2023-03-04T10:07:51.863Z,1019.82
2023-03-04T10:08:51.861Z,1019.85
2023-03-04T10:09:51.851Z,1019.85
2023-03-04T10:10:51.892Z,1019.84
2023-03-04T10:11:51.842Z,1019.82
2023-03-04T10:12:51.840Z,1019.81
2023-03-04T10:13:51.833Z,1019.87
2023-03-04T10:14:51.821Z,1019.87
2023-03-04T10:15:51.862Z,1019.88
2023-03-04T10:16:51.807Z,1019.84
2023-03-04T10:17:51.796Z,1019.84
2023-03-04T10:18:51.798Z,1019.82
2023-03-04T10:19:51.786Z,1019.80
2023-03-04T10:20:51.798Z,1019.81
2023-03-04T10:21:51.771Z,1019.79
2023-03-04T10:22:51.773Z,1019.80
2023-03-04T10:23:51.761Z,1019.76
2023-03-04T10:24:51.751Z,1019.79
2023-03-04T10:25:51.759Z,1019.82
2023-03-04T10:26:51.750Z,1019.78
2023-03-04T10:27:51.734Z,1019.79
2023-03-04T10:28:51.732Z,1019.78
2023-03-04T10:29:51.715Z,1019.74
2023-03-04T10:30:51.711Z,1019.71
2023-03-04T10:31:51.926Z,1019.72
2023-03-04T10:32:51.714Z,1019.77
2023-03-04T10:33:51.683Z,1019.72
2023-03-04T10:34:51.684Z,1019.72
2023-03-04T10:35:51.765Z,1019.70
2023-03-04T10:36:51.684Z,1019.68
2023-03-04T10:37:51.658Z,1019.66
2023-03-04T10:38:51.651Z,1019.67
2023-03-04T10:39:51.642Z,1019.66
2023-03-04T10:40:51.643Z,1019.66
2023-03-04T10:41:51.743Z,1019.66
2023-03-04T10:42:51.631Z,1019.59
2023-03-04T10:43:51.618Z,1019.62
2023-03-04T10:44:52.000Z,1019.65
2023-03-04T10:45:51.720Z,1019.61
2023-03-04T10:46:51.595Z,1019.56
2023-03-04T10:47:51.585Z,1019.60
2023-03-04T10:48:51.581Z,1019.58
2023-03-04T10:49:51.620Z,1019.56
2023-03-04T10:50:51.565Z,1019.57
2023-03-04T10:51:51.581Z,1019.59
2023-03-04T10:52:51.575Z,1019.52
2023-03-04T10:53:51.544Z,1019.55
2023-03-04T10:54:51.542Z,1019.55
2023-03-04T10:55:51.534Z,1019.53
2023-03-04T10:56:51.529Z,1019.52
2023-03-04T10:57:51.517Z,1019.53
2023-03-04T10:58:51.512Z,1019.49
2023-03-04T10:59:51.512Z,1019.48
2023-03-04T11:00:51.561Z,1019.51
2023-03-04T11:01:51.490Z,1019.51
2023-03-04T11:02:51.482Z,1019.51
2023-03-04T11:03:51.529Z,1019.47
2023-03-04T11:04:51.470Z,1019.48
2023-03-04T11:05:51.466Z,1019.49
2023-03-04T11:06:51.571Z,1019.48
2023-03-04T11:07:56.296Z,1019.43
2023-03-04T11:08:51.478Z,1019.46
2023-03-04T11:09:51.441Z,1019.44
2023-03-04T11:10:51.432Z,1019.45
2023-03-04T11:11:51.429Z,1019.51
2023-03-04T11:12:51.418Z,1019.45
2023-03-04T11:13:51.416Z,1019.43
2023-03-04T11:14:51.418Z,1019.43
2023-03-04T11:15:51.406Z,1019.44
2023-03-04T11:16:51.425Z,1019.44
2023-03-04T11:17:51.388Z,1019.41
2023-03-04T11:18:51.379Z,1019.41
2023-03-04T11:19:51.376Z,1019.43
2023-03-04T11:20:51.363Z,1019.36
2023-03-04T11:21:51.360Z,1019.38
2023-03-04T11:22:51.354Z,1019.40
2023-03-04T11:23:51.749Z,1019.40
2023-03-04T11:24:51.361Z,1019.39
2023-03-04T11:25:51.350Z,1019.36
2023-03-04T11:26:51.323Z,1019.35
2023-03-04T11:27:51.320Z,1019.31
2023-03-04T11:28:51.313Z,1019.32
2023-03-04T11:29:51.317Z,1019.35
2023-03-04T11:30:51.412Z,1019.35
2023-03-04T11:31:51.328Z,1019.32
2023-03-04T11:32:51.325Z,1019.33
2023-03-04T11:33:51.292Z,1019.31
2023-03-04T11:34:51.319Z,1019.32
2023-03-04T11:35:51.298Z,1019.27
2023-03-04T11:36:51.284Z,1019.29
2023-03-04T11:37:51.264Z,1019.28
2023-03-04T11:38:51.259Z,1019.26
2023-03-04T11:39:51.265Z,1019.27
2023-03-04T11:40:51.269Z,1019.24
2023-03-04T11:41:51.256Z,1019.25
2023-03-04T11:42:51.262Z,1019.25
2023-03-04T11:43:51.249Z,1019.22
2023-03-04T11:44:51.254Z,1019.19
2023-03-04T11:45:51.303Z,1019.21
2023-03-04T11:46:51.224Z,1019.20
2023-03-04T11:47:51.223Z,1019.23
2023-03-04T11:48:51.230Z,1019.20
2023-03-04T11:49:51.243Z,1019.17
2023-03-04T11:50:51.203Z,1019.21
2023-03-04T11:51:51.204Z,1019.21
2023-03-04T11:52:51.192Z,1019.18
2023-03-04T11:53:51.184Z,1019.13
2023-03-04T11:54:51.176Z,1019.13
2023-03-04T11:55:51.176Z,1019.11
2023-03-04T11:56:51.183Z,1019.11
2023-03-04T11:57:51.160Z,1019.08
2023-03-04T11:58:51.153Z,1019.06
2023-03-04T11:59:51.150Z,1019.05
2023-03-04T12:00:51.134Z,1019.05
2023-03-04T12:01:51.133Z,1019.01
2023-03-04T12:02:51.123Z,1019.00
2023-03-04T12:03:51.253Z,1019.00
2023-03-04T12:04:51.135Z,1018.99
2023-03-04T12:05:51.104Z,1018.91